sensor_id;sensor_type;location;lat;lon;timestamp;temperature;humidity
63219;DHT22;49320;52.512;13.448;2023-04-08T00:00:43;9.10;78.50
63219;DHT22;49320;52.512;13.448;2023-04-08T00:03:11;9.10;78.40
63219;DHT22;49320;52.512;13.448;2023-04-08T00:05:38;9.10;78.80
63219;DHT22;49320;52.512;13.448;2023-04-08T00:08:05;9.10;78.30
63219;DHT22;49320;52.512;13.448;2023-04-08T00:10:32;9.10;78.80
63219;DHT22;49320;52.512;13.448;2023-04-08T00:12:59;9.10;78.00
63219;DHT22;49320;52.512;13.448;2023-04-08T00:15:26;9.10;78.40
63219;DHT22;49320;52.512;13.448;2023-04-08T00:17:53;9.10;78.00
63219;DHT22;49320;52.512;13.448;2023-04-08T00:20:22;9.10;77.70
63219;DHT22;49320;52.512;13.448;2023-04-08T00:22:50;9.10;78.70
63219;DHT22;49320;52.512;13.448;2023-04-08T00:25:16;9.10;78.80
63219;DHT22;49320;52.512;13.448;2023-04-08T00:27:44;9.10;78.70
63219;DHT22;49320;52.512;13.448;2023-04-08T00:30:11;9.10;78.70
63219;DHT22;49320;52.512;13.448;2023-04-08T00:32:38;9.00;78.40
63219;DHT22;49320;52.512;13.448;2023-04-08T00:35:05;9.10;78.60
63219;DHT22;49320;52.512;13.448;2023-04-08T00:37:32;9.10;79.00
63219;DHT22;49320;52.512;13.448;2023-04-08T00:39:58;9.10;79.60
63219;DHT22;49320;52.512;13.448;2023-04-08T00:42:26;9.10;79.60
63219;DHT22;49320;52.512;13.448;2023-04-08T00:44:52;9.10;78.90
63219;DHT22;49320;52.512;13.448;2023-04-08T00:47:19;9.10;79.10
63219;DHT22;49320;52.512;13.448;2023-04-08T00:49:46;9.10;80.40
63219;DHT22;49320;52.512;13.448;2023-04-08T00:52:13;9.10;79.20
63219;DHT22;49320;52.512;13.448;2023-04-08T00:54:40;9.10;79.70
63219;DHT22;49320;52.512;13.448;2023-04-08T00:57:07;9.10;79.60
63219;DHT22;49320;52.512;13.448;2023-04-08T00:59:35;9.10;79.70
63219;DHT22;49320;52.512;13.448;2023-04-08T01:02:14;9.10;79.90
63219;DHT22;49320;52.512;13.448;2023-04-08T01:05:01;9.10;80.80
63219;DHT22;49320;52.512;13.448;2023-04-08T01:07:36;9.10;80.90
63219;DHT22;49320;52.512;13.448;2023-04-08T01:10:20;9.10;80.30
63219;DHT22;49320;52.512;13.448;2023-04-08T01:13:04;9.00;81.20
63219;DHT22;49320;52.512;13.448;2023-04-08T01:15:36;9.00;81.50
63219;DHT22;49320;52.512;13.448;2023-04-08T01:18:10;9.00;80.10
63219;DHT22;49320;52.512;13.448;2023-04-08T01:20:40;9.00;79.90
63219;DHT22;49320;52.512;13.448;2023-04-08T01:23:15;9.00;80.20
63219;DHT22;49320;52.512;13.448;2023-04-08T01:25:50;9.00;81.30
63219;DHT22;49320;52.512;13.448;2023-04-08T01:28:21;9.00;80.30
63219;DHT22;49320;52.512;13.448;2023-04-08T01:30:51;9.10;80.60
63219;DHT22;49320;52.512;13.448;2023-04-08T01:33:23;9.00;80.40
63219;DHT22;49320;52.512;13.448;2023-04-08T01:35:51;9.00;81.00
63219;DHT22;49320;52.512;13.448;2023-04-08T01:38:22;9.00;80.60
63219;DHT22;49320;52.512;13.448;2023-04-08T01:40:52;9.00;80.90
63219;DHT22;49320;52.512;13.448;2023-04-08T01:43:21;9.00;80.40
63219;DHT22;49320;52.512;13.448;2023-04-08T01:45:49;9.00;80.90
63219;DHT22;49320;52.512;13.448;2023-04-08T01:48:20;9.00;80.50
63219;DHT22;49320;52.512;13.448;2023-04-08T01:50:48;9.00;80.50
63219;DHT22;49320;52.512;13.448;2023-04-08T01:53:16;9.00;80.70
63219;DHT22;49320;52.512;13.448;2023-04-08T01:55:44;9.10;80.60
63219;DHT22;49320;52.512;13.448;2023-04-08T01:58:17;9.00;80.50
63219;DHT22;49320;52.512;13.448;2023-04-08T02:00:47;9.00;81.10
63219;DHT22;49320;52.512;13.448;2023-04-08T02:03:17;9.00;80.60
63219;DHT22;49320;52.512;13.448;2023-04-08T02:05:48;9.00;81.10
63219;DHT22;49320;52.512;13.448;2023-04-08T02:10:42;9.00;80.10
63219;DHT22;49320;52.512;13.448;2023-04-08T02:13:09;9.00;80.60
63219;DHT22;49320;52.512;13.448;2023-04-08T02:15:37;9.00;80.30
63219;DHT22;49320;52.512;13.448;2023-04-08T02:18:18;9.00;80.80
63219;DHT22;49320;52.512;13.448;2023-04-08T02:21:15;9.00;79.80
63219;DHT22;49320;52.512;13.448;2023-04-08T02:23:47;9.00;80.80
63219;DHT22;49320;52.512;13.448;2023-04-08T02:26:17;9.00;80.90
63219;DHT22;49320;52.512;13.448;2023-04-08T02:28:48;9.10;81.10
63219;DHT22;49320;52.512;13.448;2023-04-08T02:31:17;9.10;81.40
63219;DHT22;49320;52.512;13.448;2023-04-08T02:33:46;9.10;81.30
63219;DHT22;49320;52.512;13.448;2023-04-08T02:36:16;9.10;82.40
63219;DHT22;49320;52.512;13.448;2023-04-08T02:38:47;9.10;81.00
63219;DHT22;49320;52.512;13.448;2023-04-08T02:41:16;9.10;81.80
63219;DHT22;49320;52.512;13.448;2023-04-08T02:43:43;9.00;80.80
63219;DHT22;49320;52.512;13.448;2023-04-08T02:46:10;9.10;81.40
63219;DHT22;49320;52.512;13.448;2023-04-08T02:48:37;9.10;81.60
63219;DHT22;49320;52.512;13.448;2023-04-08T02:51:04;9.10;81.60
63219;DHT22;49320;52.512;13.448;2023-04-08T02:53:31;9.10;81.60
63219;DHT22;49320;52.512;13.448;2023-04-08T02:55:57;9.10;81.50
63219;DHT22;49320;52.512;13.448;2023-04-08T02:58:24;9.10;81.40
63219;DHT22;49320;52.512;13.448;2023-04-08T03:00:51;9.10;81.30
63219;DHT22;49320;52.512;13.448;2023-04-08T03:03:18;9.10;81.50
63219;DHT22;49320;52.512;13.448;2023-04-08T03:05:45;9.20;82.30
63219;DHT22;49320;52.512;13.448;2023-04-08T03:08:12;9.20;81.70
63219;DHT22;49320;52.512;13.448;2023-04-08T03:10:39;9.20;82.80
63219;DHT22;49320;52.512;13.448;2023-04-08T03:13:06;9.20;81.90
63219;DHT22;49320;52.512;13.448;2023-04-08T03:15:33;9.20;81.30
63219;DHT22;49320;52.512;13.448;2023-04-08T03:17:59;9.10;81.30
63219;DHT22;49320;52.512;13.448;2023-04-08T03:20:26;9.20;81.60
63219;DHT22;49320;52.512;13.448;2023-04-08T03:22:53;9.20;81.60
63219;DHT22;49320;52.512;13.448;2023-04-08T03:25:20;9.20;81.40
63219;DHT22;49320;52.512;13.448;2023-04-08T03:27:47;9.20;81.40
63219;DHT22;49320;52.512;13.448;2023-04-08T03:30:14;9.20;81.40
63219;DHT22;49320;52.512;13.448;2023-04-08T03:32:41;9.20;81.30
63219;DHT22;49320;52.512;13.448;2023-04-08T03:35:08;9.20;81.60
63219;DHT22;49320;52.512;13.448;2023-04-08T03:37:35;9.10;81.10
63219;DHT22;49320;52.512;13.448;2023-04-08T03:40:02;9.20;81.80
63219;DHT22;49320;52.512;13.448;2023-04-08T03:42:30;9.10;81.50
63219;DHT22;49320;52.512;13.448;2023-04-08T03:44:57;9.10;81.60
63219;DHT22;49320;52.512;13.448;2023-04-08T03:47:24;9.10;81.90
63219;DHT22;49320;52.512;13.448;2023-04-08T03:49:54;9.10;81.90
63219;DHT22;49320;52.512;13.448;2023-04-08T03:52:21;9.10;82.40
63219;DHT22;49320;52.512;13.448;2023-04-08T03:54:48;9.10;81.90
63219;DHT22;49320;52.512;13.448;2023-04-08T03:57:15;9.10;81.80
63219;DHT22;49320;52.512;13.448;2023-04-08T03:59:41;9.10;81.90
63219;DHT22;49320;52.512;13.448;2023-04-08T04:02:08;9.10;82.20
63219;DHT22;49320;52.512;13.448;2023-04-08T04:04:35;9.10;82.30
63219;DHT22;49320;52.512;13.448;2023-04-08T04:07:02;9.10;82.30
63219;DHT22;49320;52.512;13.448;2023-04-08T04:09:29;9.10;82.30
63219;DHT22;49320;52.512;13.448;2023-04-08T04:11:56;9.10;82.20
63219;DHT22;49320;52.512;13.448;2023-04-08T04:14:22;9.20;82.70
63219;DHT22;49320;52.512;13.448;2023-04-08T04:16:50;9.10;82.30
63219;DHT22;49320;52.512;13.448;2023-04-08T04:19:16;9.10;82.50
63219;DHT22;49320;52.512;13.448;2023-04-08T04:21:44;9.10;82.20
63219;DHT22;49320;52.512;13.448;2023-04-08T04:26:40;9.10;81.70
63219;DHT22;49320;52.512;13.448;2023-04-08T04:29:07;9.10;82.90
63219;DHT22;49320;52.512;13.448;2023-04-08T04:31:34;9.10;82.80
63219;DHT22;49320;52.512;13.448;2023-04-08T04:34:01;9.10;82.50
63219;DHT22;49320;52.512;13.448;2023-04-08T04:36:27;9.10;82.80
63219;DHT22;49320;52.512;13.448;2023-04-08T04:38:54;9.10;83.00
63219;DHT22;49320;52.512;13.448;2023-04-08T04:41:22;9.10;82.40
63219;DHT22;49320;52.512;13.448;2023-04-08T04:43:49;9.10;82.60
63219;DHT22;49320;52.512;13.448;2023-04-08T04:46:15;9.20;83.10
63219;DHT22;49320;52.512;13.448;2023-04-08T04:48:43;9.20;82.70
63219;DHT22;49320;52.512;13.448;2023-04-08T04:51:10;9.20;83.00
63219;DHT22;49320;52.512;13.448;2023-04-08T04:53:36;9.20;83.00
63219;DHT22;49320;52.512;13.448;2023-04-08T04:56:03;9.20;83.70
63219;DHT22;49320;52.512;13.448;2023-04-08T04:58:30;9.30;82.90
63219;DHT22;49320;52.512;13.448;2023-04-08T05:00:57;9.30;83.00
63219;DHT22;49320;52.512;13.448;2023-04-08T05:03:24;9.30;83.00
63219;DHT22;49320;52.512;13.448;2023-04-08T05:05:52;9.30;83.30
63219;DHT22;49320;52.512;13.448;2023-04-08T05:08:20;9.30;83.00
63219;DHT22;49320;52.512;13.448;2023-04-08T05:10:47;9.20;82.50
63219;DHT22;49320;52.512;13.448;2023-04-08T05:13:17;9.30;82.80
63219;DHT22;49320;52.512;13.448;2023-04-08T05:15:44;9.30;82.80
63219;DHT22;49320;52.512;13.448;2023-04-08T05:18:11;9.30;82.80
63219;DHT22;49320;52.512;13.448;2023-04-08T05:20:38;9.40;82.70
63219;DHT22;49320;52.512;13.448;2023-04-08T05:23:05;9.30;82.80
63219;DHT22;49320;52.512;13.448;2023-04-08T05:25:33;9.40;82.70
63219;DHT22;49320;52.512;13.448;2023-04-08T05:28:00;9.40;82.70
63219;DHT22;49320;52.512;13.448;2023-04-08T05:30:26;9.40;82.50
63219;DHT22;49320;52.512;13.448;2023-04-08T05:32:53;9.40;82.60
63219;DHT22;49320;52.512;13.448;2023-04-08T05:35:22;9.40;83.00
63219;DHT22;49320;52.512;13.448;2023-04-08T05:37:48;9.40;82.70
63219;DHT22;49320;52.512;13.448;2023-04-08T05:40:15;9.50;82.80
63219;DHT22;49320;52.512;13.448;2023-04-08T05:42:42;9.50;82.20
63219;DHT22;49320;52.512;13.448;2023-04-08T05:45:09;9.60;82.90
63219;DHT22;49320;52.512;13.448;2023-04-08T05:47:36;9.60;82.70
63219;DHT22;49320;52.512;13.448;2023-04-08T05:50:04;9.60;82.70
63219;DHT22;49320;52.512;13.448;2023-04-08T05:52:31;9.60;82.80
63219;DHT22;49320;52.512;13.448;2023-04-08T05:54:58;9.60;82.50
63219;DHT22;49320;52.512;13.448;2023-04-08T05:57:26;9.70;82.70
63219;DHT22;49320;52.512;13.448;2023-04-08T05:59:52;9.70;82.50
63219;DHT22;49320;52.512;13.448;2023-04-08T06:02:19;9.70;82.50
63219;DHT22;49320;52.512;13.448;2023-04-08T06:07:15;9.70;81.90
63219;DHT22;49320;52.512;13.448;2023-04-08T06:09:41;9.80;82.60
63219;DHT22;49320;52.512;13.448;2023-04-08T06:12:10;9.80;82.50
63219;DHT22;49320;52.512;13.448;2023-04-08T06:14:37;9.80;82.10
63219;DHT22;49320;52.512;13.448;2023-04-08T06:17:04;9.80;82.00
63219;DHT22;49320;52.512;13.448;2023-04-08T06:19:31;9.80;82.10
63219;DHT22;49320;52.512;13.448;2023-04-08T06:21:58;9.90;82.60
63219;DHT22;49320;52.512;13.448;2023-04-08T06:24:26;9.90;82.50
63219;DHT22;49320;52.512;13.448;2023-04-08T06:26:53;8.50;81.50
63219;DHT22;49320;52.512;13.448;2023-04-08T06:29:20;10.00;82.40
63219;DHT22;49320;52.512;13.448;2023-04-08T06:31:49;10.00;82.60
63219;DHT22;49320;52.512;13.448;2023-04-08T06:34:16;10.00;82.40
63219;DHT22;49320;52.512;13.448;2023-04-08T06:36:43;10.10;82.50
63219;DHT22;49320;52.512;13.448;2023-04-08T06:39:10;10.10;81.90
63219;DHT22;49320;52.512;13.448;2023-04-08T06:41:37;10.20;82.40
63219;DHT22;49320;52.512;13.448;2023-04-08T06:44:04;10.40;82.40
63219;DHT22;49320;52.512;13.448;2023-04-08T06:46:30;10.20;81.60
63219;DHT22;49320;52.512;13.448;2023-04-08T06:48:57;10.30;82.00
63219;DHT22;49320;52.512;13.448;2023-04-08T06:51:24;10.30;81.80
63219;DHT22;49320;52.512;13.448;2023-04-08T06:53:51;10.40;81.90
63219;DHT22;49320;52.512;13.448;2023-04-08T06:56:17;10.40;81.70
63219;DHT22;49320;52.512;13.448;2023-04-08T06:58:46;10.50;81.70
63219;DHT22;49320;52.512;13.448;2023-04-08T07:01:14;10.50;81.40
63219;DHT22;49320;52.512;13.448;2023-04-08T07:03:42;10.50;81.60
63219;DHT22;49320;52.512;13.448;2023-04-08T07:06:09;10.50;81.60
63219;DHT22;49320;52.512;13.448;2023-04-08T07:08:36;10.60;81.40
63219;DHT22;49320;52.512;13.448;2023-04-08T07:11:04;10.60;81.90
63219;DHT22;49320;52.512;13.448;2023-04-08T07:13:31;10.60;81.10
63219;DHT22;49320;52.512;13.448;2023-04-08T07:15:58;10.70;81.30
63219;DHT22;49320;52.512;13.448;2023-04-08T07:18:25;10.70;81.00
63219;DHT22;49320;52.512;13.448;2023-04-08T07:20:52;10.70;80.90
63219;DHT22;49320;52.512;13.448;2023-04-08T07:23:19;10.80;81.00
63219;DHT22;49320;52.512;13.448;2023-04-08T07:25:47;10.80;81.10
63219;DHT22;49320;52.512;13.448;2023-04-08T07:28:13;10.80;81.00
63219;DHT22;49320;52.512;13.448;2023-04-08T07:30:41;10.90;80.90
63219;DHT22;49320;52.512;13.448;2023-04-08T07:33:08;10.90;80.60
63219;DHT22;49320;52.512;13.448;2023-04-08T07:35:35;11.00;80.70
63219;DHT22;49320;52.512;13.448;2023-04-08T07:38:02;11.00;80.50
63219;DHT22;49320;52.512;13.448;2023-04-08T07:40:29;10.00;79.90
63219;DHT22;49320;52.512;13.448;2023-04-08T07:45:23;11.10;80.10
63219;DHT22;49320;52.512;13.448;2023-04-08T07:47:50;11.20;80.50
63219;DHT22;49320;52.512;13.448;2023-04-08T07:50:17;11.30;80.60
63219;DHT22;49320;52.512;13.448;2023-04-08T07:52:44;11.30;80.40
63219;DHT22;49320;52.512;13.448;2023-04-08T07:55:11;11.40;80.30
63219;DHT22;49320;52.512;13.448;2023-04-08T07:57:37;11.50;80.30
63219;DHT22;49320;52.512;13.448;2023-04-08T08:00:05;11.60;80.10
63219;DHT22;49320;52.512;13.448;2023-04-08T08:02:33;11.60;79.70
63219;DHT22;49320;52.512;13.448;2023-04-08T08:05:00;11.70;79.60
63219;DHT22;49320;52.512;13.448;2023-04-08T08:07:29;11.80;79.30
63219;DHT22;49320;52.512;13.448;2023-04-08T08:09:56;11.80;78.90
63219;DHT22;49320;52.512;13.448;2023-04-08T08:12:23;11.90;78.70
63219;DHT22;49320;52.512;13.448;2023-04-08T08:14:49;11.90;78.40
63219;DHT22;49320;52.512;13.448;2023-04-08T08:17:17;11.90;78.20
63219;DHT22;49320;52.512;13.448;2023-04-08T08:19:43;12.00;78.10
63219;DHT22;49320;52.512;13.448;2023-04-08T08:22:10;12.00;78.10
63219;DHT22;49320;52.512;13.448;2023-04-08T08:24:37;12.00;78.00
63219;DHT22;49320;52.512;13.448;2023-04-08T08:27:04;12.10;78.00
63219;DHT22;49320;52.512;13.448;2023-04-08T08:29:32;12.00;77.70
63219;DHT22;49320;52.512;13.448;2023-04-08T08:31:59;11.80;77.40
63219;DHT22;49320;52.512;13.448;2023-04-08T08:34:25;12.20;77.40
63219;DHT22;49320;52.512;13.448;2023-04-08T08:36:52;12.00;77.20
63219;DHT22;49320;52.512;13.448;2023-04-08T08:39:19;12.20;77.20
63219;DHT22;49320;52.512;13.448;2023-04-08T08:41:46;12.20;77.20
63219;DHT22;49320;52.512;13.448;2023-04-08T08:44:13;12.20;77.20
63219;DHT22;49320;52.512;13.448;2023-04-08T08:46:43;12.30;77.20
63219;DHT22;49320;52.512;13.448;2023-04-08T08:49:12;12.30;77.20
63219;DHT22;49320;52.512;13.448;2023-04-08T08:51:39;12.30;77.20
63219;DHT22;49320;52.512;13.448;2023-04-08T08:54:07;12.50;77.30
63219;DHT22;49320;52.512;13.448;2023-04-08T08:56:34;12.50;77.10
63219;DHT22;49320;52.512;13.448;2023-04-08T08:59:01;12.60;76.90
63219;DHT22;49320;52.512;13.448;2023-04-08T09:01:38;12.70;76.60
63219;DHT22;49320;52.512;13.448;2023-04-08T09:04:20;12.80;76.20
63219;DHT22;49320;52.512;13.448;2023-04-08T09:06:49;12.90;75.90
63219;DHT22;49320;52.512;13.448;2023-04-08T09:09:50;12.90;75.50
63219;DHT22;49320;52.512;13.448;2023-04-08T09:12:19;12.90;75.40
63219;DHT22;49320;52.512;13.448;2023-04-08T09:14:46;12.90;75.20
63219;DHT22;49320;52.512;13.448;2023-04-08T09:17:14;12.80;75.20
63219;DHT22;49320;52.512;13.448;2023-04-08T09:20:06;12.90;75.30
63219;DHT22;49320;52.512;13.448;2023-04-08T09:22:59;12.90;75.00
63219;DHT22;49320;52.512;13.448;2023-04-08T09:25:29;13.00;75.00
63219;DHT22;49320;52.512;13.448;2023-04-08T09:28:00;12.90;74.60
63219;DHT22;49320;52.512;13.448;2023-04-08T09:30:28;12.90;74.40
63219;DHT22;49320;52.512;13.448;2023-04-08T09:32:57;12.90;74.50
63219;DHT22;49320;52.512;13.448;2023-04-08T09:35:24;12.90;74.20
63219;DHT22;49320;52.512;13.448;2023-04-08T09:37:51;12.90;74.60
63219;DHT22;49320;52.512;13.448;2023-04-08T09:40:18;12.90;74.50
63219;DHT22;49320;52.512;13.448;2023-04-08T09:42:46;12.80;74.60
63219;DHT22;49320;52.512;13.448;2023-04-08T09:45:17;12.80;74.90
63219;DHT22;49320;52.512;13.448;2023-04-08T09:50:31;12.90;74.30
63219;DHT22;49320;52.512;13.448;2023-04-08T09:53:12;13.00;74.90
63219;DHT22;49320;52.512;13.448;2023-04-08T09:55:50;13.10;74.10
63219;DHT22;49320;52.512;13.448;2023-04-08T09:58:27;13.10;74.90
63219;DHT22;49320;52.512;13.448;2023-04-08T10:00:55;13.20;74.70
63219;DHT22;49320;52.512;13.448;2023-04-08T10:03:28;13.30;74.60
63219;DHT22;49320;52.512;13.448;2023-04-08T10:06:01;13.40;74.00
63219;DHT22;49320;52.512;13.448;2023-04-08T10:08:29;13.50;73.90
63219;DHT22;49320;52.512;13.448;2023-04-08T10:10:58;13.50;73.60
63219;DHT22;49320;52.512;13.448;2023-04-08T10:13:26;13.70;73.30
63219;DHT22;49320;52.512;13.448;2023-04-08T10:16:17;13.80;73.10
63219;DHT22;49320;52.512;13.448;2023-04-08T10:18:47;14.00;72.00
63219;DHT22;49320;52.512;13.448;2023-04-08T10:23:58;14.20;70.90
63219;DHT22;49320;52.512;13.448;2023-04-08T10:26:33;14.30;71.00
63219;DHT22;49320;52.512;13.448;2023-04-08T10:31:44;14.30;69.80
63219;DHT22;49320;52.512;13.448;2023-04-08T10:34:21;14.30;70.00
63219;DHT22;49320;52.512;13.448;2023-04-08T10:36:54;14.30;69.70
63219;DHT22;49320;52.512;13.448;2023-04-08T10:39:24;14.40;69.60
63219;DHT22;49320;52.512;13.448;2023-04-08T10:41:51;14.40;69.20
63219;DHT22;49320;52.512;13.448;2023-04-08T10:44:19;14.30;68.80
63219;DHT22;49320;52.512;13.448;2023-04-08T10:46:49;14.50;68.80
63219;DHT22;49320;52.512;13.448;2023-04-08T10:49:18;14.50;69.20
63219;DHT22;49320;52.512;13.448;2023-04-08T10:51:45;14.50;68.00
63219;DHT22;49320;52.512;13.448;2023-04-08T10:54:14;14.60;68.20
63219;DHT22;49320;52.512;13.448;2023-04-08T10:56:47;14.60;67.20
63219;DHT22;49320;52.512;13.448;2023-04-08T10:59:20;14.70;67.60
63219;DHT22;49320;52.512;13.448;2023-04-08T11:01:53;14.70;67.40
63219;DHT22;49320;52.512;13.448;2023-04-08T11:04:21;14.80;67.30
63219;DHT22;49320;52.512;13.448;2023-04-08T11:06:49;14.70;66.70
63219;DHT22;49320;52.512;13.448;2023-04-08T11:09:17;14.80;66.70
63219;DHT22;49320;52.512;13.448;2023-04-08T11:11:45;14.80;66.40
63219;DHT22;49320;52.512;13.448;2023-04-08T11:14:13;14.80;66.10
63219;DHT22;49320;52.512;13.448;2023-04-08T11:16:40;14.80;65.40
63219;DHT22;49320;52.512;13.448;2023-04-08T11:19:07;14.80;66.30
63219;DHT22;49320;52.512;13.448;2023-04-08T11:21:35;14.90;66.60
63219;DHT22;49320;52.512;13.448;2023-04-08T11:24:09;14.90;66.30
63219;DHT22;49320;52.512;13.448;2023-04-08T11:26:39;15.00;65.90
63219;DHT22;49320;52.512;13.448;2023-04-08T11:29:10;15.10;65.70
63219;DHT22;49320;52.512;13.448;2023-04-08T11:31:41;15.10;65.00
63219;DHT22;49320;52.512;13.448;2023-04-08T11:34:09;15.10;65.10
63219;DHT22;49320;52.512;13.448;2023-04-08T11:36:39;15.20;65.20
63219;DHT22;49320;52.512;13.448;2023-04-08T11:39:08;15.30;64.30
63219;DHT22;49320;52.512;13.448;2023-04-08T11:41:38;15.40;65.20
63219;DHT22;49320;52.512;13.448;2023-04-08T11:44:06;15.50;65.00
63219;DHT22;49320;52.512;13.448;2023-04-08T11:46:36;15.00;64.50
63219;DHT22;49320;52.512;13.448;2023-04-08T11:49:05;15.70;64.30
63219;DHT22;49320;52.512;13.448;2023-04-08T11:54:30;15.80;62.90
63219;DHT22;49320;52.512;13.448;2023-04-08T11:56:58;15.80;63.00
63219;DHT22;49320;52.512;13.448;2023-04-08T11:59:26;15.80;63.20
63219;DHT22;49320;52.512;13.448;2023-04-08T12:01:55;15.80;62.90
63219;DHT22;49320;52.512;13.448;2023-04-08T12:04:22;15.80;62.50
63219;DHT22;49320;52.512;13.448;2023-04-08T12:06:49;15.90;62.40
63219;DHT22;49320;52.512;13.448;2023-04-08T12:09:16;15.70;62.10
63219;DHT22;49320;52.512;13.448;2023-04-08T12:11:43;15.80;62.10
63219;DHT22;49320;52.512;13.448;2023-04-08T12:14:09;15.80;62.00
63219;DHT22;49320;52.512;13.448;2023-04-08T12:16:36;15.90;62.10
63219;DHT22;49320;52.512;13.448;2023-04-08T12:19:03;15.80;61.40
63219;DHT22;49320;52.512;13.448;2023-04-08T12:21:30;15.80;61.40
63219;DHT22;49320;52.512;13.448;2023-04-08T12:23:57;15.80;61.40
63219;DHT22;49320;52.512;13.448;2023-04-08T12:26:25;15.80;61.30
63219;DHT22;49320;52.512;13.448;2023-04-08T12:28:52;15.80;61.10
63219;DHT22;49320;52.512;13.448;2023-04-08T12:31:19;15.90;61.20
63219;DHT22;49320;52.512;13.448;2023-04-08T12:33:47;15.90;60.70
63219;DHT22;49320;52.512;13.448;2023-04-08T12:36:14;15.90;60.90
63219;DHT22;49320;52.512;13.448;2023-04-08T12:38:40;16.00;60.70
63219;DHT22;49320;52.512;13.448;2023-04-08T12:41:08;16.00;60.10
63219;DHT22;49320;52.512;13.448;2023-04-08T12:43:34;16.00;60.10
63219;DHT22;49320;52.512;13.448;2023-04-08T12:46:01;16.00;60.00
63219;DHT22;49320;52.512;13.448;2023-04-08T12:48:28;16.10;59.80
63219;DHT22;49320;52.512;13.448;2023-04-08T12:50:55;16.10;59.20
63219;DHT22;49320;52.512;13.448;2023-04-08T12:53:22;16.20;59.20
63219;DHT22;49320;52.512;13.448;2023-04-08T12:55:49;16.20;59.00
63219;DHT22;49320;52.512;13.448;2023-04-08T12:58:17;16.20;58.40
63219;DHT22;49320;52.512;13.448;2023-04-08T13:00:45;16.20;58.20
63219;DHT22;49320;52.512;13.448;2023-04-08T13:05:43;16.30;57.20
63219;DHT22;49320;52.512;13.448;2023-04-08T13:08:10;16.30;58.20
63219;DHT22;49320;52.512;13.448;2023-04-08T13:10:40;16.30;58.10
63219;DHT22;49320;52.512;13.448;2023-04-08T13:13:07;16.30;58.00
63219;DHT22;49320;52.512;13.448;2023-04-08T13:15:34;16.20;57.90
63219;DHT22;49320;52.512;13.448;2023-04-08T13:18:01;16.30;57.90
63219;DHT22;49320;52.512;13.448;2023-04-08T13:20:28;16.30;57.80
63219;DHT22;49320;52.512;13.448;2023-04-08T13:22:54;16.20;57.20
63219;DHT22;49320;52.512;13.448;2023-04-08T13:25:21;16.20;57.40
63219;DHT22;49320;52.512;13.448;2023-04-08T13:27:48;16.10;57.30
63219;DHT22;49320;52.512;13.448;2023-04-08T13:30:15;16.10;58.00
63219;DHT22;49320;52.512;13.448;2023-04-08T13:32:42;16.00;57.50
63219;DHT22;49320;52.512;13.448;2023-04-08T13:35:09;15.90;57.30
63219;DHT22;49320;52.512;13.448;2023-04-08T13:37:36;15.90;57.20
63219;DHT22;49320;52.512;13.448;2023-04-08T13:40:04;15.90;57.50
63219;DHT22;49320;52.512;13.448;2023-04-08T13:42:31;15.90;57.60
63219;DHT22;49320;52.512;13.448;2023-04-08T13:44:58;15.90;57.40
63219;DHT22;49320;52.512;13.448;2023-04-08T13:47:25;15.90;57.40
63219;DHT22;49320;52.512;13.448;2023-04-08T13:49:53;16.00;57.20
63219;DHT22;49320;52.512;13.448;2023-04-08T13:54:47;16.00;56.40
63219;DHT22;49320;52.512;13.448;2023-04-08T13:57:14;16.00;57.10
63219;DHT22;49320;52.512;13.448;2023-04-08T13:59:41;15.90;57.00
63219;DHT22;49320;52.512;13.448;2023-04-08T14:02:10;15.90;57.00
63219;DHT22;49320;52.512;13.448;2023-04-08T14:04:37;15.90;57.00
63219;DHT22;49320;52.512;13.448;2023-04-08T14:07:05;15.80;57.10
63219;DHT22;49320;52.512;13.448;2023-04-08T14:09:32;15.80;56.80
63219;DHT22;49320;52.512;13.448;2023-04-08T14:11:59;15.80;57.10
63219;DHT22;49320;52.512;13.448;2023-04-08T14:14:26;15.90;56.90
63219;DHT22;49320;52.512;13.448;2023-04-08T14:16:52;15.90;56.90
63219;DHT22;49320;52.512;13.448;2023-04-08T14:19:19;16.00;57.00
63219;DHT22;49320;52.512;13.448;2023-04-08T14:21:46;16.80;57.40
63219;DHT22;49320;52.512;13.448;2023-04-08T14:24:13;16.20;57.10
63219;DHT22;49320;52.512;13.448;2023-04-08T14:26:40;16.20;56.80
63219;DHT22;49320;52.512;13.448;2023-04-08T14:29:08;16.30;56.80
63219;DHT22;49320;52.512;13.448;2023-04-08T14:31:35;16.40;56.80
63219;DHT22;49320;52.512;13.448;2023-04-08T14:34:02;16.40;56.50
63219;DHT22;49320;52.512;13.448;2023-04-08T14:36:29;16.50;56.30
63219;DHT22;49320;52.512;13.448;2023-04-08T14:38:57;16.50;55.80
63219;DHT22;49320;52.512;13.448;2023-04-08T14:41:24;16.40;55.80
63219;DHT22;49320;52.512;13.448;2023-04-08T14:43:52;16.40;56.30
63219;DHT22;49320;52.512;13.448;2023-04-08T14:46:20;16.40;55.80
63219;DHT22;49320;52.512;13.448;2023-04-08T14:48:47;16.40;54.90
63219;DHT22;49320;52.512;13.448;2023-04-08T14:51:14;16.40;56.20
63219;DHT22;49320;52.512;13.448;2023-04-08T14:53:41;16.40;55.90
63219;DHT22;49320;52.512;13.448;2023-04-08T14:56:08;16.50;55.50
63219;DHT22;49320;52.512;13.448;2023-04-08T14:58:35;16.50;55.60
63219;DHT22;49320;52.512;13.448;2023-04-08T15:01:03;16.60;55.30
63219;DHT22;49320;52.512;13.448;2023-04-08T15:03:30;16.60;55.30
63219;DHT22;49320;52.512;13.448;2023-04-08T15:05:57;16.60;55.30
63219;DHT22;49320;52.512;13.448;2023-04-08T15:08:25;16.60;55.20
63219;DHT22;49320;52.512;13.448;2023-04-08T15:13:19;16.80;54.70
63219;DHT22;49320;52.512;13.448;2023-04-08T15:15:46;16.80;55.00
63219;DHT22;49320;52.512;13.448;2023-04-08T15:18:13;16.90;55.10
63219;DHT22;49320;52.512;13.448;2023-04-08T15:20:39;17.00;55.00
63219;DHT22;49320;52.512;13.448;2023-04-08T15:23:07;17.00;54.00
63219;DHT22;49320;52.512;13.448;2023-04-08T15:25:34;17.00;54.50
63219;DHT22;49320;52.512;13.448;2023-04-08T15:28:00;16.90;54.30
63219;DHT22;49320;52.512;13.448;2023-04-08T15:30:28;16.90;54.10
63219;DHT22;49320;52.512;13.448;2023-04-08T15:33:04;16.80;54.10
63219;DHT22;49320;52.512;13.448;2023-04-08T15:35:31;16.70;54.20
63219;DHT22;49320;52.512;13.448;2023-04-08T15:37:59;16.70;54.30
63219;DHT22;49320;52.512;13.448;2023-04-08T15:40:26;16.60;54.20
63219;DHT22;49320;52.512;13.448;2023-04-08T15:42:54;16.60;54.10
63219;DHT22;49320;52.512;13.448;2023-04-08T15:45:21;16.60;54.40
63219;DHT22;49320;52.512;13.448;2023-04-08T15:47:48;16.50;53.90
63219;DHT22;49320;52.512;13.448;2023-04-08T15:50:15;16.60;54.40
63219;DHT22;49320;52.512;13.448;2023-04-08T15:52:43;16.60;54.30
63219;DHT22;49320;52.512;13.448;2023-04-08T15:55:10;16.60;54.30
63219;DHT22;49320;52.512;13.448;2023-04-08T15:57:37;16.60;54.40